(キュートな)ツンデレパイロット!!

LUXURY FLIGHT

080-7560-1817

羽田空港本店:東京都大田区羽田空港3-3-2
第1旅客ターミナル5階
営業時間:10:00~20:00 定休日:年中無休
電話番号:080-7560-1817

セントレア店:愛知県常滑市セントレア1-1
FLIGHT OF DREAMS FLIGHT PARK
営業時間:10:00~20:00 定休日:年中無休
電話番号:080-4945-5666

lv

(キュートな)ツンデレパイロット!!

STAFF BLOG

2020/02/12 (キュートな)ツンデレパイロット!!

中部よりこんにちは

 

RJGG 120300Z 32006KT 9999 FEW040 09/M00 Q1027 NOSIG

 

今回ご紹介するのは、Sさまご一家!

 

昨年秋に続いて、2度目のご来店!

本当にありがとうございます!!

 

前回も、私がご一緒させていただきましたが、

体験前にお父さま・お母さま・ご令嬢さまとお話をしていると…

 

むむむっ!!!

 

私の頭のメモリーから楽しかった思い出が記憶が、どんどん鮮明に蘇ってました!

 

ご令嬢さまは、少し背が高くなっているような!!

 

でも、少しシャイで照れ屋さんで、可愛らしいところはお変わりありませんね

 

さて、今回のフライトは、夕方の時間帯をセレクト!

オートパイロット多めで、夕陽の注ぐ景色や星空を眺めながらのフライトです

 

前回のフライトをよーく覚えてくれていたようで、

手順がスムーズ!

 

レバーやノブの操作もスムーズに、そして、とてもクールに決めてくれます

いやぁ〜〜〜若いって素晴らしいですね!!

可愛さに全スタッフがメロメロです(笑)
最後も、瞬く星空に囲まれて、空港の灯りも点く滑走路へアプローチ!

 

からの〜

 

スーパースムーズランディング~~~~~~!!!

 

素晴らしすぎてついつい興奮してしまいました、すみません

 

体験後、ニッコニコなお父さまお母さまと、クールにハイチーズ

 

 

 

img_2359
すごく緊張してるのかなぁーーー???
と、一瞬感じてしまいましたが、
終始冷静な動作や立ち振る舞い、まさにパイロットのそれですね

 

 

私はあまり感情が表に出ないと自負しておりましたが…

甘かったです!!

 

そのクールさ見習わせて頂きます(笑)

 

 

おかえりの際、

お母様が「実は家に帰ると、ものすご~~~く喜んでるんですよ」と、

 

こっそり教えてくださいました!

 

ありがとうございます!励みになります!

 

今回も喜んでもらえていたら、嬉しい限りです。

またのご来店を、心よりお待ち致しております。

 

「飛行機を飛ばしてみたい!」

「空港に興味がある!」
「将来パイロットになりたい!」
そんなご子息さま・ご令嬢様の好奇心や夢を大きく膨らませるお手伝いを是非させてください!

 

そして、ご成長を一緒に見守らせて頂くことで、共に成長せて頂ければ、幸いです。

 

いつもブログをお読みくださり、本当にありがとうございます。

「感謝」

TOP